Mount Vernon, IL (62864)

2:37 AM CDT on May 01, 2017 (GMT -0500)
Spring Garden Lane/Dodds Township | | Change Station

Elev 186 ft 38.26 °N, 88.87 °W | Updated 30 seconds ago

Clear
Clear
55.1 °F
Feels Like 55.1 °F
N
4.0
Wind Variable Wind from SSE

Today
High -- | Low -- °F
--% Chance of Precip.
Yesterday
High -- | Low -- °F
Precip. -- in
Pressure 29.60 in
Visibility 10.0 miles
Clouds Clear
Dew Point 48 °F
Humidity 78%
Rainfall 0.00 in
Snow Depth Not available.
5:58 AM 7:47 PM
Waxing Crescent, 30% visible
METAR KMVN 010656Z AUTO 21013G20KT 10SM CLR 13/07 A2961 RMK AO2 SLP024 T01330072 TSNO
Pressure 29.60 in
Visibility 10.0 miles
Clouds Clear
Dew Point 48 °F
Humidity 78%
Rainfall 0.00 in
Snow Depth Not available.
5:58 AM 7:47 PM
Waxing Crescent, 30% visible
METAR KMVN 010656Z AUTO 21013G20KT 10SM CLR 13/07 A2961 RMK AO2 SLP024 T01330072 TSNO

Get Severe Weather Alerts

Thanks for signing up!

Be on the lookout for a verification email in your inbox.

You'll start receiving the daily forecast at 8 AM.

×

10-Day Weather Forecast

Almanac

Astronomy

May. 01, 2017 Rise Set
Actual Time
Civil Twilight
Nautical Twilight
Astronomical Twilight
Moon
Length of Visible Light
Length of Day
Tomorrow will be .
, % of the Moon is Illuminated

Today's Extremes

State Highs State Lows

Community

WunderPhotos

WunderBlog® & News

Nearby

Air Quality

  Air Quality AQ Index Pollutant
Not available.

Snow Depth

Station Depth Elevation

Earthquake Activity

City Distance Mag. Time & Date
Minimum magnitude displayed is 2.5.

Coastal Water Temperatures

Place Temperature

Stations

Nearby Weather Stations

Station Location Temp. Windchill Dew Point Humidity Wind Precip. Elev Updated Type
                   

Watches & Warnings

There are currently no watches in effect.